createdAt,value
2018-02-17T00:00:10.679Z,33.80
2018-02-17T00:02:38.949Z,37.17
2018-02-17T00:05:06.888Z,34.07
2018-02-17T00:07:34.858Z,27.23
2018-02-17T00:10:02.396Z,33.50
2018-02-17T00:12:30.306Z,34.17
2018-02-17T00:14:57.858Z,30.97
2018-02-17T00:17:25.774Z,28.13
2018-02-17T00:19:53.674Z,24.50
2018-02-17T00:22:21.591Z,25.10
2018-02-17T00:24:49.087Z,26.10
2018-02-17T00:27:17.008Z,24.83
2018-02-17T00:29:44.519Z,34.30
2018-02-17T00:32:12.212Z,30.07
2018-02-17T00:34:39.725Z,33.10
2018-02-17T00:37:07.303Z,24.37
2018-02-17T00:39:35.220Z,27.60
2018-02-17T00:42:02.872Z,27.00
2018-02-17T00:44:30.390Z,30.93
2018-02-17T00:46:57.922Z,19.30
2018-02-17T00:49:25.440Z,32.67
2018-02-17T00:51:52.966Z,22.97
2018-02-17T00:54:20.867Z,24.60
2018-02-17T00:56:49.158Z,31.00
2018-02-17T00:59:17.046Z,28.00
2018-02-17T01:01:44.967Z,41.97
2018-02-17T01:04:12.870Z,31.30
2018-02-17T01:06:40.480Z,32.57
2018-02-17T01:09:08.378Z,44.67
2018-02-17T01:11:35.912Z,33.60
2018-02-17T01:14:04.250Z,31.90
2018-02-17T01:16:31.762Z,37.63
2018-02-17T01:18:59.688Z,31.80
2018-02-17T01:21:27.680Z,44.90
2018-02-17T01:23:55.624Z,25.10
2018-02-17T01:26:23.522Z,33.83
2018-02-17T01:28:51.050Z,29.80
2018-02-17T01:31:18.714Z,46.93
2018-02-17T01:33:46.251Z,30.40
2018-02-17T01:36:14.165Z,34.70
2018-02-17T01:38:42.092Z,35.33
2018-02-17T01:41:09.605Z,33.80
2018-02-17T01:43:37.511Z,33.33
2018-02-17T01:46:05.437Z,31.10
2018-02-17T01:48:32.970Z,32.97
2018-02-17T01:51:00.539Z,34.10
2018-02-17T01:53:28.051Z,29.17
2018-02-17T01:55:55.586Z,39.50
2018-02-17T01:58:23.488Z,30.07
2018-02-17T02:00:51.412Z,34.03
2018-02-17T02:03:19.685Z,40.63
2018-02-17T02:05:47.215Z,44.23
2018-02-17T02:08:14.843Z,38.80
2018-02-17T02:10:42.491Z,31.57
2018-02-17T02:13:10.150Z,47.57
2018-02-17T02:15:38.216Z,34.93
2018-02-17T02:18:05.747Z,39.97
2018-02-17T02:20:33.291Z,40.37
2018-02-17T02:23:00.795Z,54.73
2018-02-17T02:25:28.547Z,42.07
2018-02-17T02:27:56.450Z,31.67
2018-02-17T02:30:23.970Z,40.83
2018-02-17T02:32:51.479Z,48.53
2018-02-17T02:35:19.002Z,37.73
2018-02-17T02:37:46.548Z,51.60
2018-02-17T02:40:14.844Z,32.80
2018-02-17T02:42:42.420Z,35.57
2018-02-17T02:45:09.992Z,48.77
2018-02-17T02:47:38.629Z,44.10
2018-02-17T02:50:06.545Z,42.63
2018-02-17T02:52:34.454Z,63.97
2018-02-17T02:55:01.971Z,39.00
2018-02-17T02:57:29.502Z,68.37
2018-02-17T02:59:57.394Z,49.87
2018-02-17T03:02:25.331Z,44.20
2018-02-17T03:04:52.841Z,77.70
2018-02-17T03:07:21.304Z,71.53
2018-02-17T03:09:48.820Z,55.47
2018-02-17T03:12:17.151Z,67.10
2018-02-17T03:14:45.523Z,49.53
2018-02-17T03:17:13.046Z,81.67
2018-02-17T03:19:40.950Z,37.70
2018-02-17T03:22:09.740Z,49.37
2018-02-17T03:24:37.248Z,42.13
2018-02-17T03:27:05.246Z,62.77
2018-02-17T03:29:32.745Z,51.00
2018-02-17T03:32:00.661Z,42.30
2018-02-17T03:34:28.225Z,71.93
2018-02-17T03:36:55.746Z,42.83
2018-02-17T03:39:23.735Z,80.47
2018-02-17T03:41:51.667Z,54.47
2018-02-17T03:44:19.179Z,56.13
2018-02-17T03:46:46.698Z,50.00
2018-02-17T03:49:14.979Z,42.87
2018-02-17T03:51:42.519Z,39.90
2018-02-17T03:54:10.422Z,48.50
2018-02-17T03:59:59.470Z,44.87
2018-02-17T04:02:26.994Z,41.90
2018-02-17T04:04:54.502Z,40.03
2018-02-17T04:07:22.455Z,45.90
2018-02-17T04:09:49.970Z,45.93
2018-02-17T04:12:17.898Z,32.67
2018-02-17T04:14:45.419Z,79.53
2018-02-17T04:17:13.350Z,30.77
2018-02-17T04:19:40.969Z,45.93
2018-02-17T04:22:08.475Z,21.17
2018-02-17T04:24:36.394Z,26.43
2018-02-17T04:27:03.914Z,22.97
2018-02-17T04:29:31.826Z,20.53
2018-02-17T04:31:59.732Z,54.80
2018-02-17T04:34:27.654Z,54.10
2018-02-17T04:36:55.159Z,41.10
2018-02-17T04:39:22.714Z,55.90
2018-02-17T04:41:52.474Z,26.73
2018-02-17T04:44:25.996Z,34.87
2018-02-17T04:47:13.619Z,24.40
2018-02-17T04:49:46.963Z,32.70
2018-02-17T04:52:25.150Z,31.60
2018-02-17T04:54:58.307Z,33.67
2018-02-17T05:00:59.041Z,35.80
2018-02-17T05:03:38.259Z,35.67
2018-02-17T05:06:10.363Z,44.23
2018-02-17T05:08:41.927Z,32.20
2018-02-17T05:11:09.487Z,46.43
2018-02-17T05:13:37.383Z,38.17
2018-02-17T05:16:07.691Z,38.20
2018-02-17T05:18:41.161Z,25.43
2018-02-17T05:21:23.606Z,26.67
2018-02-17T05:23:56.789Z,34.20
2018-02-17T05:26:26.791Z,22.43
2018-02-17T05:28:57.844Z,23.60
2018-02-17T05:31:26.275Z,42.23
2018-02-17T05:34:00.250Z,19.57
2018-02-17T05:36:28.181Z,42.37
2018-02-17T05:38:56.074Z,20.03
2018-02-17T05:41:24.086Z,42.97
2018-02-17T05:43:52.022Z,24.17
2018-02-17T05:46:22.883Z,25.67
2018-02-17T05:48:50.783Z,25.93
2018-02-17T05:51:18.335Z,29.77
2018-02-17T05:53:46.617Z,22.60
2018-02-17T05:56:14.217Z,29.27
2018-02-17T05:58:41.717Z,44.00
2018-02-17T06:01:09.231Z,50.47
2018-02-17T06:03:37.159Z,26.17
2018-02-17T06:27:48.783Z,33.13
2018-02-17T06:30:16.291Z,30.43
2018-02-17T06:32:43.827Z,27.50
2018-02-17T06:35:12.124Z,25.67
2018-02-17T06:37:39.635Z,40.80
2018-02-17T06:40:07.163Z,27.67
2018-02-17T06:42:34.675Z,48.17
2018-02-17T06:45:03.636Z,21.80
2018-02-17T06:47:31.156Z,41.73
2018-02-17T06:49:58.686Z,27.00
2018-02-17T06:52:26.195Z,23.27
2018-02-17T06:54:54.130Z,33.97
2018-02-17T06:57:22.402Z,33.83
2018-02-17T06:59:49.928Z,48.83
2018-02-17T07:02:17.828Z,27.33
2018-02-17T07:04:45.358Z,41.53
2018-02-17T07:07:12.872Z,28.40
2018-02-17T07:09:40.451Z,33.43
2018-02-17T07:12:09.433Z,34.47
2018-02-17T07:14:42.325Z,37.17
2018-02-17T07:17:10.295Z,46.87
2018-02-17T07:19:37.831Z,25.77
2018-02-17T07:22:05.743Z,29.93
2018-02-17T07:24:33.257Z,56.23
2018-02-17T07:27:01.556Z,31.63
2018-02-17T07:29:29.067Z,35.63
2018-02-17T07:31:56.606Z,40.57
2018-02-17T07:34:24.497Z,32.30
2018-02-17T07:36:52.027Z,40.67
2018-02-17T07:39:19.591Z,51.37
2018-02-17T07:41:47.505Z,44.47
2018-02-17T07:44:15.014Z,27.50
2018-02-17T07:46:42.605Z,24.63
2018-02-17T07:49:10.157Z,38.73
2018-02-17T07:51:37.855Z,23.03
2018-02-17T07:54:05.328Z,45.47
2018-02-17T07:56:33.227Z,42.07
2018-02-17T07:59:00.750Z,29.10
2018-02-17T08:01:28.266Z,25.30
2018-02-17T08:03:56.566Z,35.97
2018-02-17T08:06:24.454Z,32.13
2018-02-17T08:08:52.378Z,34.90
2018-02-17T08:11:19.879Z,37.20
2018-02-17T08:13:47.440Z,26.73
2018-02-17T08:16:15.470Z,27.87
2018-02-17T08:18:43.385Z,37.33
2018-02-17T08:21:11.747Z,30.27
2018-02-17T08:23:39.773Z,32.97
2018-02-17T08:26:07.508Z,25.30
2018-02-17T08:28:35.905Z,31.93
2018-02-17T08:31:03.803Z,31.33
2018-02-17T08:33:31.330Z,25.00
2018-02-17T08:35:58.855Z,24.30
2018-02-17T08:38:26.412Z,29.97
2018-02-17T08:40:54.044Z,17.63
2018-02-17T08:43:21.966Z,18.47
2018-02-17T08:45:49.883Z,24.60
2018-02-17T08:48:17.437Z,16.37
2018-02-17T08:50:45.343Z,22.43
2018-02-17T08:53:12.866Z,13.83
2018-02-17T08:55:41.657Z,19.37
2018-02-17T08:58:09.215Z,14.27
2018-02-17T09:00:36.737Z,15.20
2018-02-17T09:03:04.262Z,16.67
2018-02-17T09:05:32.159Z,13.53
2018-02-17T09:08:00.093Z,15.50
2018-02-17T09:10:39.462Z,20.63
2018-02-17T09:13:07.400Z,15.60
2018-02-17T09:15:35.308Z,18.40
2018-02-17T09:18:02.804Z,13.40
2018-02-17T09:20:30.727Z,12.63
2018-02-17T09:22:58.231Z,14.10
2018-02-17T09:25:26.158Z,16.17
2018-02-17T09:27:54.094Z,14.40
2018-02-17T09:30:23.004Z,10.80
2018-02-17T09:32:50.895Z,18.33
2018-02-17T09:35:18.542Z,12.37
2018-02-17T10:10:47.498Z,8.30
2018-02-17T10:13:15.404Z,7.33
2018-02-17T10:15:42.927Z,9.10
2018-02-17T10:18:10.827Z,8.07
2018-02-17T10:20:38.755Z,7.90
2018-02-17T10:23:07.398Z,8.30
2018-02-17T10:25:34.938Z,13.77
2018-02-17T10:28:02.446Z,8.00
2018-02-17T10:30:30.366Z,10.33
2018-02-17T10:32:58.266Z,14.07
2018-02-17T10:35:25.853Z,12.77
2018-02-17T10:37:53.758Z,16.43
2018-02-17T10:40:21.282Z,14.30
2018-02-17T10:42:48.828Z,16.30
2018-02-17T10:45:16.506Z,16.13
2018-02-17T10:47:44.413Z,10.40
2018-02-17T10:50:11.919Z,12.20
2018-02-17T10:52:39.840Z,13.63
2018-02-17T10:55:08.491Z,14.00
2018-02-17T10:57:36.026Z,13.97
2018-02-17T11:00:03.532Z,16.90
2018-02-17T11:02:31.456Z,15.20
2018-02-17T11:04:59.362Z,14.73
2018-02-17T11:07:27.293Z,12.27
2018-02-17T11:09:55.258Z,12.87
2018-02-17T11:12:22.791Z,16.60
2018-02-17T11:14:50.692Z,13.97
2018-02-17T11:17:18.613Z,15.03
2018-02-17T11:19:46.524Z,14.60
2018-02-17T11:22:14.045Z,19.13
2018-02-17T11:24:41.551Z,18.20
2018-02-17T11:27:09.079Z,17.17
2018-02-17T11:29:36.591Z,15.30
2018-02-17T11:32:04.134Z,20.97
2018-02-17T11:34:32.031Z,17.77
2018-02-17T11:36:59.955Z,17.67
2018-02-17T11:39:27.862Z,19.20
2018-02-17T11:41:55.402Z,18.33
2018-02-17T11:44:23.326Z,18.00
2018-02-17T11:46:51.223Z,17.43
2018-02-17T11:49:18.851Z,19.97
2018-02-17T11:51:46.355Z,13.00
2018-02-17T11:54:13.881Z,22.53
2018-02-17T11:56:41.771Z,19.83
2018-02-17T11:59:09.294Z,22.80
2018-02-17T12:01:37.195Z,21.63
2018-02-17T12:04:05.644Z,19.57
2018-02-17T12:06:33.586Z,21.70
2018-02-17T12:09:01.407Z,17.13
2018-02-17T12:11:28.927Z,18.10
2018-02-17T12:13:56.472Z,29.67
2018-02-17T12:16:24.123Z,21.77
2018-02-17T12:18:52.051Z,22.87
2018-02-17T12:21:20.258Z,25.30
2018-02-17T12:23:47.782Z,30.47
2018-02-17T12:26:16.059Z,27.37
2018-02-17T12:28:43.995Z,37.10
2018-02-17T12:31:11.495Z,27.17
2018-02-17T12:33:39.009Z,36.87
2018-02-17T12:36:06.620Z,32.30
2018-02-17T12:38:34.135Z,29.33
2018-02-17T12:41:02.451Z,29.27
2018-02-17T12:43:30.382Z,29.33
2018-02-17T12:45:58.291Z,29.40
2018-02-17T12:48:25.816Z,30.57
2018-02-17T12:50:53.341Z,30.33
2018-02-17T12:53:20.835Z,26.07
2018-02-17T12:55:48.355Z,24.93
2018-02-17T12:58:15.854Z,28.50
2018-02-17T13:00:43.376Z,28.57
2018-02-17T13:03:11.019Z,20.07
2018-02-17T13:05:38.591Z,19.77
2018-02-17T13:08:06.866Z,19.27
2018-02-17T13:10:35.150Z,19.23
2018-02-17T13:13:02.674Z,16.17
2018-02-17T13:15:30.195Z,17.47
2018-02-17T13:17:57.714Z,18.33
2018-02-17T13:20:25.236Z,18.10
2018-02-17T13:22:53.143Z,17.93
2018-02-17T13:25:20.655Z,17.27
2018-02-17T13:27:48.568Z,17.77
2018-02-17T13:30:16.133Z,19.97
2018-02-17T13:32:43.635Z,19.00
2018-02-17T13:35:11.904Z,17.20
2018-02-17T13:37:40.204Z,30.97
2018-02-17T13:40:08.113Z,20.90
2018-02-17T13:42:35.668Z,20.73
2018-02-17T13:45:03.190Z,21.23
2018-02-17T13:47:31.098Z,17.07
2018-02-17T13:49:58.613Z,12.77
2018-02-17T13:52:26.703Z,12.97
2018-02-17T13:54:54.360Z,14.37
2018-02-17T13:57:22.417Z,15.13
2018-02-17T13:59:50.487Z,12.77
2018-02-17T14:02:18.410Z,12.67
2018-02-17T14:04:45.913Z,12.43
2018-02-17T14:07:13.446Z,12.17
2018-02-17T14:09:41.614Z,10.73
2018-02-17T14:12:19.343Z,10.30
2018-02-17T14:14:48.563Z,10.87
2018-02-17T14:17:19.073Z,8.87
2018-02-17T14:19:46.583Z,9.13
2018-02-17T14:22:14.488Z,5.70
2018-02-17T14:24:42.025Z,8.70
2018-02-17T14:27:10.295Z,9.90
2018-02-17T14:29:37.835Z,10.07
2018-02-17T14:32:05.728Z,22.43
2018-02-17T14:34:33.300Z,19.10
2018-02-17T14:37:01.267Z,27.97
2018-02-17T14:39:28.794Z,7.80
2018-02-17T14:41:56.712Z,5.27
2018-02-17T14:44:24.633Z,12.83
2018-02-17T14:46:52.139Z,6.27
2018-02-17T14:49:19.666Z,119.93
2018-02-17T14:51:47.172Z,140.10
2018-02-17T14:54:14.762Z,6.30
2018-02-17T14:56:42.283Z,9.53
2018-02-17T14:59:10.587Z,7.50
2018-02-17T15:01:38.079Z,4.40
2018-02-17T15:04:05.579Z,8.17
2018-02-17T15:06:33.280Z,6.90
2018-02-17T15:09:01.318Z,5.97
2018-02-17T15:11:28.916Z,11.33
2018-02-17T15:13:56.424Z,6.10
2018-02-17T15:16:23.951Z,6.80
2018-02-17T15:18:51.862Z,4.90
2018-02-17T15:21:19.412Z,6.23
2018-02-17T15:23:46.974Z,7.17
2018-02-17T15:26:14.494Z,6.60
2018-02-17T15:28:41.994Z,5.17
2018-02-17T15:31:09.924Z,4.83
2018-02-17T15:33:37.435Z,6.27
2018-02-17T15:36:05.013Z,8.13
2018-02-17T15:38:32.479Z,5.97
2018-02-17T15:41:00.027Z,6.67
2018-02-17T15:43:27.926Z,6.47
2018-02-17T15:45:55.462Z,10.73
2018-02-17T15:48:22.974Z,11.03
2018-02-17T15:50:50.891Z,12.40
2018-02-17T15:53:18.781Z,13.57
2018-02-17T15:55:47.091Z,8.80
2018-02-17T15:58:14.999Z,10.37
2018-02-17T16:00:42.890Z,8.47
2018-02-17T16:03:11.932Z,22.73
2018-02-17T16:05:39.907Z,10.37
2018-02-17T16:08:07.834Z,16.43
2018-02-17T16:10:35.326Z,8.27
2018-02-17T16:13:02.857Z,12.37
2018-02-17T16:15:30.383Z,10.20
2018-02-17T16:17:57.937Z,10.73
2018-02-17T16:20:25.468Z,13.37
2018-02-17T16:22:53.406Z,8.37
2018-02-17T16:25:21.303Z,8.90
2018-02-17T16:27:49.271Z,9.40
2018-02-17T16:30:17.179Z,13.63
2018-02-17T16:32:45.158Z,7.07
2018-02-17T16:35:13.076Z,4.70
2018-02-17T16:37:40.710Z,6.43
2018-02-17T16:40:08.600Z,6.27
2018-02-17T16:42:36.166Z,11.27
2018-02-17T16:45:04.076Z,5.00
2018-02-17T16:47:31.585Z,10.50
2018-02-17T16:49:59.217Z,5.73
2018-02-17T16:52:26.718Z,4.30
2018-02-17T16:54:54.624Z,8.83
2018-02-17T16:57:22.516Z,10.37
2018-02-17T16:59:50.035Z,8.60
2018-02-17T17:02:17.566Z,8.77
2018-02-17T17:04:45.120Z,10.27
2018-02-17T17:07:12.625Z,14.70
2018-02-17T17:09:40.544Z,13.43
2018-02-17T17:12:08.056Z,9.40
2018-02-17T17:14:35.974Z,12.63
2018-02-17T17:17:03.882Z,13.23
2018-02-17T17:19:31.813Z,17.23
2018-02-17T17:21:59.317Z,14.40
2018-02-17T17:24:26.852Z,12.73
2018-02-17T17:26:54.355Z,16.30
2018-02-17T17:29:22.308Z,11.77
2018-02-17T17:31:49.817Z,19.20
2018-02-17T17:34:17.323Z,20.13
2018-02-17T17:36:44.855Z,20.87
2018-02-17T17:39:12.398Z,23.77
2018-02-17T17:41:39.924Z,25.93
2018-02-17T17:44:07.820Z,19.77
2018-02-17T17:46:35.356Z,19.93
2018-02-17T17:49:02.855Z,17.33
2018-02-17T17:51:30.383Z,17.83
2018-02-17T17:53:59.033Z,19.23
2018-02-17T17:56:26.563Z,11.73
2018-02-17T17:58:55.583Z,15.37
2018-02-17T18:01:23.524Z,18.90
2018-02-17T18:03:51.040Z,15.97
2018-02-17T18:06:18.674Z,19.07
2018-02-17T18:08:46.195Z,20.17
2018-02-17T18:11:13.718Z,19.93
2018-02-17T18:13:41.635Z,15.10
2018-02-17T18:16:09.555Z,13.73
2018-02-17T18:18:37.059Z,29.03
2018-02-17T18:21:04.616Z,33.97
2018-02-17T18:23:32.139Z,27.20
2018-02-17T18:26:00.071Z,26.03
2018-02-17T18:28:27.599Z,20.73
2018-02-17T18:30:55.504Z,19.13
2018-02-17T18:33:23.024Z,13.47
2018-02-17T18:35:50.543Z,34.97
2018-02-17T18:38:18.075Z,17.13
2018-02-17T18:40:45.587Z,26.73
2018-02-17T18:43:13.506Z,25.23
2018-02-17T18:45:41.024Z,18.67
2018-02-17T18:48:08.684Z,17.17
2018-02-17T18:50:36.595Z,18.23
2018-02-17T18:53:04.519Z,14.53
2018-02-17T18:55:32.056Z,20.13
2018-02-17T18:58:00.012Z,14.80
2018-02-17T19:00:28.287Z,18.60
2018-02-17T19:02:55.815Z,15.03
2018-02-17T19:05:23.758Z,11.43
2018-02-17T19:07:51.692Z,16.13
2018-02-17T19:10:19.598Z,18.07
2018-02-17T19:12:47.524Z,14.03
2018-02-17T19:15:15.027Z,16.07
2018-02-17T19:17:42.556Z,12.63
2018-02-17T19:20:10.479Z,17.87
2018-02-17T19:22:38.224Z,15.47
2018-02-17T19:25:05.725Z,21.13
2018-02-17T19:27:33.263Z,15.80
2018-02-17T19:30:00.764Z,21.00
2018-02-17T19:32:28.379Z,18.27
2018-02-17T19:34:55.976Z,17.03
2018-02-17T19:37:23.535Z,17.60
2018-02-17T19:39:51.047Z,18.23
2018-02-17T19:42:18.557Z,18.40
2018-02-17T19:44:46.514Z,21.10
2018-02-17T19:47:14.029Z,17.97
2018-02-17T19:49:42.319Z,18.13
2018-02-17T19:52:09.820Z,19.57
2018-02-17T19:54:37.357Z,24.03
2018-02-17T19:57:04.865Z,18.07
2018-02-17T19:59:32.394Z,24.10
2018-02-17T20:01:59.908Z,22.20
2018-02-17T20:04:27.442Z,18.27
2018-02-17T20:06:54.952Z,17.90
2018-02-17T20:09:22.483Z,21.10
2018-02-17T20:11:50.382Z,19.50
2018-02-17T20:14:18.319Z,18.83
2018-02-17T20:16:45.828Z,23.70
2018-02-17T20:19:13.395Z,20.37
2018-02-17T20:21:40.907Z,16.03
2018-02-17T20:24:08.436Z,18.07
2018-02-17T20:26:35.955Z,14.30
2018-02-17T20:29:04.627Z,15.43
2018-02-17T20:31:32.186Z,16.13
2018-02-17T20:34:00.087Z,13.27
2018-02-17T20:36:28.024Z,14.20
2018-02-17T20:38:55.537Z,16.80
2018-02-17T20:41:33.484Z,15.07
